Long Beach, California
Current Conditions -  °F | °C
As of 7:53 PM on Wednesday 28 Jan 2015 (Local Time) from KLGB Reporting Station
Clear Clear  
Wind Chill: 18°   Ceiling: Unl
Heat Index: 18°   Visibility: 10mi
Dew Point: 11°   Wind: 3mph
Humidity: 63%   Direction: 320°NW
Pressure: 30.08"   Gusts: NA
Location:  33.77°N, 118.19°W
Report Text: KLGB 290353Z 32003KT 10SM CLR 18/11 A3008 RMK AO2 SLP185 T01780106
Loading
Personal Weather Stations






























Interactive Weather Map New forecast layout! Learn more

10-Day Weather Forecast

Advertisements
Track Severe Weather on mobile